Авиационная погода в Каяани

Регион: 
Погода METAR: 
EFKI 282220Z AUTO 12005KT CAVOK 16/09 Q1025
Время наблюдения
2022-06-28T22:20:00Z
Температура C
16.0
Точка росы
9.0
Направление ветра
120
Скорость ветра (узлы)
5
Метео видимость
6.21
Облачность
CAVOK
Нижняя граница облачности (футы)
Явления погоды
Условия полета
VFR